createdAt,value
2023-08-15T00:00:33.257Z,4.50
2023-08-15T00:03:26.175Z,3.40
2023-08-15T00:05:59.062Z,5.30
2023-08-15T00:08:31.715Z,5.90
2023-08-15T00:11:04.544Z,3.70
2023-08-15T00:13:37.499Z,4.00
2023-08-15T00:16:10.172Z,5.50
2023-08-15T00:18:42.973Z,5.60
2023-08-15T00:21:16.013Z,5.10
2023-08-15T00:23:48.546Z,3.00
2023-08-15T00:26:21.095Z,5.60
2023-08-15T00:28:53.930Z,2.50
2023-08-15T00:31:26.505Z,2.60
2023-08-15T00:33:59.066Z,4.10
2023-08-15T00:36:31.459Z,2.80
2023-08-15T00:39:04.605Z,1.90
2023-08-15T00:41:37.772Z,3.30
2023-08-15T00:44:10.361Z,2.90
2023-08-15T00:46:45.021Z,6.80
2023-08-15T00:49:18.074Z,5.20
2023-08-15T00:51:51.433Z,6.60
2023-08-15T00:54:23.959Z,3.20
2023-08-15T00:56:57.202Z,2.80
2023-08-15T00:59:29.923Z,4.70
2023-08-15T01:02:04.041Z,4.30
2023-08-15T01:04:37.185Z,2.90
2023-08-15T02:03:21.104Z,3.40
2023-08-15T02:05:53.359Z,6.90
2023-08-15T02:08:25.961Z,2.70
2023-08-15T02:10:58.400Z,4.70
2023-08-15T02:13:34.755Z,3.20
2023-08-15T02:16:06.906Z,3.70
2023-08-15T02:18:41.788Z,4.20
2023-08-15T02:21:15.866Z,7.70
2023-08-15T02:23:48.081Z,3.00
2023-08-15T02:26:20.209Z,3.40
2023-08-15T02:28:52.327Z,3.20
2023-08-15T02:31:27.898Z,2.70
2023-08-15T02:34:00.140Z,3.40
2023-08-15T02:36:32.436Z,4.20
2023-08-15T02:39:05.289Z,6.40
2023-08-15T02:41:37.412Z,4.00
2023-08-15T02:44:09.855Z,2.80
2023-08-15T02:46:42.202Z,2.80
2023-08-15T02:49:14.534Z,3.30
2023-08-15T02:51:46.688Z,3.30
2023-08-15T02:54:18.999Z,2.50
2023-08-15T02:56:51.286Z,2.20
2023-08-15T02:59:23.417Z,6.80
2023-08-15T03:01:56.042Z,3.90
2023-08-15T03:04:28.590Z,2.90
2023-08-15T03:07:00.992Z,4.60
2023-08-15T03:09:33.338Z,4.40
2023-08-15T03:12:06.013Z,3.50
2023-08-15T03:14:38.808Z,3.50
2023-08-15T03:17:12.517Z,4.20
2023-08-15T03:19:45.923Z,3.40
2023-08-15T03:22:18.962Z,2.40
2023-08-15T03:24:51.681Z,2.30
2023-08-15T03:27:23.959Z,4.50
2023-08-15T03:29:56.580Z,4.80
2023-08-15T03:32:28.823Z,3.00
2023-08-15T03:35:01.420Z,2.70
2023-08-15T03:37:34.422Z,4.00
2023-08-15T03:40:07.336Z,3.80
2023-08-15T03:42:39.698Z,3.30
2023-08-15T03:45:13.618Z,3.20
2023-08-15T03:47:46.013Z,3.30
2023-08-15T03:50:18.546Z,3.10
2023-08-15T03:52:50.724Z,3.60
2023-08-15T03:55:22.937Z,3.90
2023-08-15T03:57:55.169Z,6.20
2023-08-15T04:00:27.845Z,2.50
2023-08-15T04:03:00.283Z,6.20
2023-08-15T04:05:32.564Z,3.30
2023-08-15T04:08:05.141Z,5.70
2023-08-15T04:10:40.976Z,7.30
2023-08-15T04:13:13.801Z,2.70
2023-08-15T04:15:46.148Z,7.60
2023-08-15T04:18:18.947Z,4.70
2023-08-15T04:20:51.681Z,2.50
2023-08-15T04:23:23.943Z,2.80
2023-08-15T04:25:56.313Z,2.70
2023-08-15T04:28:28.703Z,4.60
2023-08-15T04:31:01.053Z,3.20
2023-08-15T04:33:33.553Z,3.10
2023-08-15T04:36:07.058Z,2.60
2023-08-15T04:38:39.213Z,4.80
2023-08-15T04:41:12.862Z,5.70
2023-08-15T04:43:45.299Z,3.00
2023-08-15T04:46:17.615Z,2.40
2023-08-15T04:48:50.593Z,2.70
2023-08-15T04:51:22.981Z,4.60
2023-08-15T04:53:55.454Z,3.10
2023-08-15T04:56:29.109Z,2.50
2023-08-15T04:59:01.180Z,4.30
2023-08-15T05:01:33.354Z,2.40
2023-08-15T05:04:06.133Z,3.20
2023-08-15T05:06:39.546Z,2.80
2023-08-15T05:09:11.771Z,2.30
2023-08-15T05:11:43.978Z,2.30
2023-08-15T05:14:16.338Z,2.70
2023-08-15T05:16:48.764Z,2.00
2023-08-15T05:19:21.101Z,3.70
2023-08-15T05:21:53.350Z,1.80
2023-08-15T05:24:26.403Z,3.80
2023-08-15T05:26:59.031Z,2.00
2023-08-15T05:29:32.418Z,2.70
2023-08-15T05:32:06.165Z,2.40
2023-08-15T05:34:38.797Z,2.30
2023-08-15T05:37:11.310Z,3.80
2023-08-15T05:39:43.804Z,1.90
2023-08-15T05:42:19.158Z,3.90
2023-08-15T05:44:51.735Z,1.90
2023-08-15T05:47:24.094Z,4.70
2023-08-15T05:49:56.678Z,2.10
2023-08-15T05:52:29.593Z,1.90
2023-08-15T05:55:01.970Z,7.10
2023-08-15T05:57:34.584Z,3.40
2023-08-15T06:00:09.794Z,2.50
2023-08-15T06:02:48.116Z,4.10
2023-08-15T06:05:20.851Z,4.20
2023-08-15T06:07:53.401Z,2.20
2023-08-15T06:10:26.194Z,4.80
2023-08-15T06:12:58.555Z,2.20
2023-08-15T06:15:31.172Z,4.40
2023-08-15T06:18:03.978Z,2.90
2023-08-15T06:20:38.028Z,3.80
2023-08-15T06:23:11.401Z,2.70
2023-08-15T06:25:44.270Z,2.90
2023-08-15T06:28:19.063Z,2.30
2023-08-15T06:30:52.134Z,4.70
2023-08-15T06:33:24.642Z,3.90
2023-08-15T06:35:58.137Z,8.20
2023-08-15T06:38:30.500Z,2.70
2023-08-15T06:41:03.917Z,1.80
2023-08-15T06:43:36.787Z,2.60
2023-08-15T06:46:09.069Z,2.00
2023-08-15T06:48:41.676Z,4.20
2023-08-15T06:51:13.877Z,9.30
2023-08-15T06:53:46.850Z,5.60
2023-08-15T06:56:18.831Z,1.60
2023-08-15T06:58:51.188Z,4.30
2023-08-15T07:01:23.413Z,5.30
2023-08-15T07:03:56.024Z,2.70
2023-08-15T07:06:28.459Z,5.00
2023-08-15T07:09:01.574Z,5.80
2023-08-15T07:11:33.914Z,1.60
2023-08-15T07:14:08.022Z,4.40
2023-08-15T07:16:40.399Z,5.10
2023-08-15T07:19:12.675Z,3.50
2023-08-15T07:21:46.906Z,7.40
2023-08-15T07:26:51.133Z,3.00
2023-08-15T07:29:23.466Z,6.20
2023-08-15T07:31:55.683Z,6.10
2023-08-15T07:34:28.061Z,4.60
2023-08-15T07:37:01.038Z,10.80
2023-08-15T07:39:33.699Z,2.60
2023-08-15T07:42:06.472Z,3.20
2023-08-15T07:44:38.946Z,1.80
2023-08-15T07:47:11.236Z,2.40
2023-08-15T07:49:43.335Z,2.50
2023-08-15T07:52:15.578Z,2.60
2023-08-15T07:54:48.879Z,4.80
2023-08-15T07:57:20.916Z,4.40
2023-08-15T07:59:53.169Z,7.00
2023-08-15T08:02:26.030Z,1.90
2023-08-15T08:04:58.433Z,3.60
2023-08-15T08:07:34.071Z,2.30
2023-08-15T08:10:08.352Z,1.70
2023-08-15T08:12:40.534Z,2.50
2023-08-15T08:15:13.561Z,1.70
2023-08-15T08:17:45.572Z,2.20
2023-08-15T08:20:18.626Z,4.80
2023-08-15T08:22:51.185Z,2.90
2023-08-15T08:25:25.128Z,1.90
2023-08-15T08:27:57.441Z,2.40
2023-08-15T08:30:31.909Z,5.40
2023-08-15T08:33:05.310Z,5.70
2023-08-15T08:35:37.542Z,8.30
2023-08-15T08:38:09.640Z,5.20
2023-08-15T08:40:43.223Z,1.70
2023-08-15T08:43:16.126Z,5.40
2023-08-15T08:45:51.272Z,2.20
2023-08-15T08:48:25.608Z,2.00
2023-08-15T08:50:58.511Z,3.60
2023-08-15T08:53:30.811Z,8.10
2023-08-15T08:56:04.268Z,2.70
2023-08-15T08:58:38.388Z,2.80
2023-08-15T09:01:10.983Z,3.00
2023-08-15T09:03:43.420Z,3.40
2023-08-15T09:06:15.789Z,3.90
2023-08-15T09:08:48.061Z,2.70
2023-08-15T09:11:20.144Z,2.40
2023-08-15T09:13:53.831Z,2.60
2023-08-15T09:18:56.816Z,2.10
2023-08-15T09:21:32.056Z,2.10
2023-08-15T09:24:07.836Z,3.20
2023-08-15T09:26:41.579Z,2.20
2023-08-15T09:31:47.287Z,2.90
2023-08-15T09:34:19.597Z,1.70
2023-08-15T09:37:26.539Z,2.70
2023-08-15T09:40:02.162Z,2.60
2023-08-15T09:42:47.242Z,2.50
2023-08-15T09:45:20.929Z,3.00
2023-08-15T09:47:54.083Z,1.60
2023-08-15T09:50:26.674Z,2.10
2023-08-15T09:52:59.476Z,6.40
2023-08-15T09:55:32.941Z,1.90
2023-08-15T09:58:05.696Z,3.00
2023-08-15T10:00:40.056Z,1.30
2023-08-15T10:03:19.616Z,2.90
2023-08-15T10:05:56.229Z,1.70
2023-08-15T10:08:28.345Z,2.40
2023-08-15T10:11:01.624Z,1.90
2023-08-15T10:13:36.329Z,2.80
2023-08-15T10:16:13.613Z,5.20
2023-08-15T10:18:56.581Z,1.20
2023-08-15T10:21:29.306Z,2.70
2023-08-15T10:26:34.934Z,1.60
2023-08-15T10:29:07.246Z,1.20
2023-08-15T10:31:40.764Z,1.40
2023-08-15T10:34:14.069Z,1.80
2023-08-15T10:40:22.650Z,2.70
2023-08-15T10:43:03.290Z,2.70
2023-08-15T10:45:44.637Z,1.60
2023-08-15T10:48:17.355Z,2.80
2023-08-15T10:50:51.674Z,2.80
2023-08-15T10:53:23.700Z,2.40
2023-08-15T10:55:57.264Z,1.60
2023-08-15T10:58:29.420Z,2.20
2023-08-15T11:01:02.205Z,1.60
2023-08-15T11:03:34.990Z,2.00
2023-08-15T11:06:14.266Z,1.70
2023-08-15T11:08:48.292Z,1.80
2023-08-15T11:11:20.663Z,5.80
2023-08-15T11:13:53.857Z,2.40
2023-08-15T11:16:26.798Z,1.60
2023-08-15T11:18:59.916Z,1.90
2023-08-15T11:24:03.767Z,1.90
2023-08-15T11:26:35.787Z,2.00
2023-08-15T11:29:09.411Z,4.10
2023-08-15T11:31:42.246Z,1.60
2023-08-15T11:34:14.563Z,2.40
2023-08-15T11:36:48.363Z,1.30
2023-08-15T11:39:20.583Z,2.20
2023-08-15T11:42:01.537Z,4.80
2023-08-15T11:44:33.383Z,1.80
2023-08-15T11:47:12.237Z,3.00
2023-08-15T11:49:50.858Z,2.70
2023-08-15T11:52:23.330Z,1.60
2023-08-15T11:54:55.532Z,1.60
2023-08-15T11:57:39.941Z,1.80
2023-08-15T12:00:14.806Z,2.90
2023-08-15T12:02:48.425Z,3.80
2023-08-15T12:05:21.299Z,3.30
2023-08-15T12:07:53.668Z,1.50
2023-08-15T12:10:25.954Z,1.60
2023-08-15T12:12:58.109Z,1.50
2023-08-15T12:15:30.318Z,3.50
2023-08-15T12:18:02.600Z,3.10
2023-08-15T12:20:34.823Z,1.60
2023-08-15T12:23:15.364Z,3.40
2023-08-15T12:25:51.593Z,1.90
2023-08-15T12:28:24.058Z,2.00
2023-08-15T12:30:56.139Z,2.50
2023-08-15T12:33:45.791Z,2.80
2023-08-15T12:36:19.701Z,1.40
2023-08-15T12:38:51.815Z,3.30
2023-08-15T12:41:23.874Z,1.80
2023-08-15T12:43:56.216Z,2.30
2023-08-15T12:46:28.595Z,2.00
2023-08-15T12:49:03.823Z,2.20
2023-08-15T12:51:36.459Z,1.70
2023-08-15T12:54:09.919Z,2.40
2023-08-15T12:56:42.374Z,4.20
2023-08-15T12:59:14.449Z,1.60
2023-08-15T13:01:46.738Z,1.80
2023-08-15T13:04:19.185Z,1.50
2023-08-15T13:06:51.116Z,5.00
2023-08-15T13:09:23.388Z,3.50
2023-08-15T13:11:55.790Z,1.50
2023-08-15T13:14:33.133Z,2.10
2023-08-15T13:17:06.012Z,1.60
2023-08-15T13:19:38.501Z,1.90
2023-08-15T13:22:10.812Z,1.80
2023-08-15T13:24:42.816Z,3.50
2023-08-15T13:27:15.120Z,2.80
2023-08-15T13:29:47.383Z,1.60
2023-08-15T13:32:19.835Z,3.50
2023-08-15T13:34:51.917Z,3.00
2023-08-15T13:37:24.100Z,2.70
2023-08-15T13:39:58.836Z,3.00
2023-08-15T13:45:09.465Z,2.20
2023-08-15T13:47:42.279Z,2.80
2023-08-15T13:50:14.470Z,1.50
2023-08-15T13:52:46.532Z,1.70
2023-08-15T13:55:18.848Z,1.80
2023-08-15T13:57:50.725Z,2.10
2023-08-15T14:00:23.401Z,2.90
2023-08-15T14:02:55.543Z,5.20
2023-08-15T14:05:28.199Z,2.50
2023-08-15T14:08:00.669Z,6.30
2023-08-15T14:10:32.741Z,2.20
2023-08-15T14:13:05.024Z,2.10
2023-08-15T14:15:38.645Z,4.00
2023-08-15T14:18:11.034Z,2.10
2023-08-15T14:20:43.466Z,2.60
2023-08-15T14:23:15.742Z,2.20
2023-08-15T14:25:48.106Z,2.50
2023-08-15T14:28:20.166Z,2.20
2023-08-15T14:30:52.946Z,2.50
2023-08-15T14:33:26.116Z,2.40
2023-08-15T14:35:58.686Z,2.00
2023-08-15T14:38:31.784Z,14.10
2023-08-15T14:41:05.200Z,4.60
2023-08-15T14:43:37.363Z,2.80
2023-08-15T14:46:09.561Z,2.10
2023-08-15T14:48:42.510Z,3.60
2023-08-15T14:51:15.332Z,4.20
2023-08-15T14:53:48.279Z,4.00
2023-08-15T14:56:20.548Z,3.30
2023-08-15T14:58:53.363Z,2.00
2023-08-15T15:01:25.571Z,5.50
2023-08-15T15:03:58.102Z,5.10
2023-08-15T15:06:30.329Z,2.20
2023-08-15T15:09:03.987Z,5.80
2023-08-15T15:11:36.198Z,3.90
2023-08-15T15:14:08.407Z,4.10
2023-08-15T15:16:41.007Z,2.60
2023-08-15T15:19:13.275Z,2.80
2023-08-15T15:21:45.703Z,2.10
2023-08-15T15:24:18.029Z,3.60
2023-08-15T15:26:50.497Z,1.80
2023-08-15T15:29:22.671Z,4.10
2023-08-15T15:31:54.991Z,2.50
2023-08-15T15:34:27.324Z,3.50
2023-08-15T15:36:59.615Z,3.20
2023-08-15T15:39:32.156Z,14.10
2023-08-15T15:42:04.844Z,3.30
2023-08-15T15:44:37.190Z,3.00
2023-08-15T15:47:09.750Z,3.70
2023-08-15T15:49:42.688Z,4.40
2023-08-15T15:52:15.325Z,5.70
2023-08-15T15:54:48.208Z,3.50
2023-08-15T15:57:20.673Z,3.10
2023-08-15T15:59:53.568Z,3.60
2023-08-15T16:02:26.335Z,6.30
2023-08-15T16:05:00.461Z,3.50
2023-08-15T16:07:33.071Z,4.50
2023-08-15T16:10:06.756Z,4.50
2023-08-15T16:12:39.210Z,3.70
2023-08-15T16:15:12.839Z,14.80
2023-08-15T16:17:46.058Z,10.90
2023-08-15T16:20:18.441Z,5.60
2023-08-15T16:22:51.560Z,8.30
2023-08-15T16:25:24.342Z,4.60
2023-08-15T16:27:58.228Z,4.20
2023-08-15T16:30:31.181Z,7.50
2023-08-15T16:33:03.814Z,5.20
2023-08-15T16:35:36.375Z,5.20
2023-08-15T16:38:09.958Z,4.10
2023-08-15T16:40:42.114Z,6.30
2023-08-15T16:43:19.731Z,6.30
2023-08-15T16:45:52.586Z,5.70
2023-08-15T16:48:24.957Z,4.80
2023-08-15T16:50:57.060Z,5.80
2023-08-15T16:53:29.230Z,7.80
2023-08-15T16:56:01.397Z,4.00
2023-08-15T16:58:33.519Z,5.80
2023-08-15T17:01:08.141Z,6.20
2023-08-15T17:06:11.162Z,5.80
2023-08-15T17:08:43.205Z,6.70
2023-08-15T17:11:16.156Z,7.00
2023-08-15T17:13:49.600Z,4.00
2023-08-15T17:16:24.069Z,11.00
2023-08-15T17:18:56.297Z,10.40
2023-08-15T17:21:30.032Z,13.30
2023-08-15T17:24:02.413Z,3.90
2023-08-15T17:26:34.386Z,5.90
2023-08-15T17:29:06.863Z,3.50
2023-08-15T17:31:38.949Z,5.50
2023-08-15T17:34:11.174Z,6.60
2023-08-15T17:36:43.176Z,4.50
2023-08-15T17:39:15.524Z,7.10
2023-08-15T17:41:47.788Z,4.60
2023-08-15T17:44:21.017Z,7.90
2023-08-15T17:46:55.061Z,6.70
2023-08-15T17:49:34.640Z,7.30
2023-08-15T17:52:25.116Z,4.80
2023-08-15T17:55:35.908Z,5.50
2023-08-15T17:58:08.492Z,5.60
2023-08-15T18:01:10.212Z,5.00
2023-08-15T18:03:46.157Z,8.10
2023-08-15T18:06:20.737Z,5.10
2023-08-15T18:08:53.461Z,5.60
2023-08-15T18:11:25.883Z,11.20
2023-08-15T18:13:58.253Z,6.70
2023-08-15T18:17:02.893Z,4.30
2023-08-15T18:19:35.158Z,4.90
2023-08-15T18:22:09.355Z,4.80
2023-08-15T18:28:03.912Z,18.20
2023-08-15T18:30:36.714Z,20.40
2023-08-15T18:33:09.326Z,6.40
2023-08-15T18:35:41.693Z,5.40
2023-08-15T18:38:13.903Z,5.80
2023-08-15T18:40:46.125Z,7.10
2023-08-15T18:43:18.392Z,11.10
2023-08-15T18:45:50.730Z,7.10
2023-08-15T18:48:24.460Z,12.80
2023-08-15T18:50:57.130Z,37.10
2023-08-15T18:53:29.004Z,11.40
2023-08-15T18:56:01.527Z,51.70
2023-08-15T18:58:33.678Z,71.60
2023-08-15T19:01:06.462Z,40.50
2023-08-15T19:03:38.836Z,14.50
2023-08-15T19:06:11.867Z,32.50
2023-08-15T19:08:44.413Z,6.40
2023-08-15T19:11:16.596Z,8.80
2023-08-15T19:13:50.015Z,8.00
2023-08-15T19:16:24.029Z,14.50
2023-08-15T19:19:00.694Z,13.70
2023-08-15T19:21:33.669Z,9.50
2023-08-15T19:24:06.190Z,10.50
2023-08-15T19:26:38.632Z,7.00
2023-08-15T19:29:10.886Z,8.70
2023-08-15T19:31:43.058Z,4.40
2023-08-15T19:34:20.676Z,5.20
2023-08-15T19:36:53.142Z,3.30
2023-08-15T19:39:25.348Z,4.30
2023-08-15T19:41:57.453Z,9.80
2023-08-15T19:44:30.175Z,4.50
2023-08-15T19:47:02.807Z,3.50
2023-08-15T19:49:35.674Z,4.50
2023-08-15T19:52:08.178Z,3.60
2023-08-15T19:54:40.711Z,2.90
2023-08-15T19:57:12.908Z,2.90
2023-08-15T19:59:45.713Z,5.10
2023-08-15T20:02:20.100Z,3.60
2023-08-15T20:04:55.069Z,5.50
2023-08-15T20:07:27.312Z,4.20
2023-08-15T20:10:10.752Z,3.90
2023-08-15T20:12:44.106Z,3.70
2023-08-15T20:15:16.577Z,5.20
2023-08-15T20:17:49.272Z,5.10
2023-08-15T20:20:22.812Z,4.40
2023-08-15T20:22:55.130Z,3.40
2023-08-15T20:25:28.353Z,3.40
2023-08-15T20:28:00.489Z,3.90
2023-08-15T20:30:32.790Z,3.70
2023-08-15T20:33:05.579Z,3.40
2023-08-15T20:35:39.703Z,3.60
2023-08-15T20:38:12.233Z,6.00
2023-08-15T20:40:46.748Z,6.40
2023-08-15T20:43:19.474Z,4.90
2023-08-15T20:45:53.995Z,4.30
2023-08-15T20:48:26.239Z,5.00
2023-08-15T20:50:58.648Z,4.30
2023-08-15T20:53:31.097Z,3.30
2023-08-15T20:56:03.409Z,6.60
2023-08-15T20:58:35.805Z,5.70
2023-08-15T21:01:08.286Z,3.30
2023-08-15T21:03:40.878Z,4.40
2023-08-15T21:06:13.217Z,3.20
2023-08-15T21:08:45.921Z,3.80
2023-08-15T21:11:18.976Z,3.40
2023-08-15T21:13:53.334Z,3.10
2023-08-15T21:16:26.100Z,6.10
2023-08-15T21:18:59.791Z,3.60
2023-08-15T21:21:31.857Z,3.20
2023-08-15T21:24:04.950Z,3.20
2023-08-15T21:26:39.840Z,4.30
2023-08-15T21:29:13.654Z,3.30
2023-08-15T21:31:46.907Z,2.80
2023-08-15T21:34:20.717Z,5.80
2023-08-15T21:36:53.621Z,2.90
2023-08-15T21:39:26.145Z,2.90
2023-08-15T21:41:58.203Z,5.70
2023-08-15T21:44:31.750Z,5.80
2023-08-15T21:47:04.480Z,4.10
2023-08-15T21:49:36.643Z,3.70
2023-08-15T21:52:09.836Z,4.00
2023-08-15T21:54:41.864Z,3.40
2023-08-15T21:57:14.533Z,5.00
2023-08-15T21:59:47.083Z,6.10
2023-08-15T22:02:19.580Z,5.30
2023-08-15T22:04:52.681Z,7.00
2023-08-15T22:07:25.440Z,7.90
2023-08-15T22:09:57.636Z,3.60
2023-08-15T22:12:29.741Z,6.40
2023-08-15T22:15:02.259Z,6.10
2023-08-15T22:17:44.937Z,7.20
2023-08-15T22:20:19.623Z,3.40
2023-08-15T22:22:53.369Z,5.00
2023-08-15T22:25:25.862Z,6.80
2023-08-15T22:27:57.930Z,10.40
2023-08-15T22:30:30.790Z,4.60
2023-08-15T22:33:03.059Z,7.80
2023-08-15T22:35:42.812Z,9.30
2023-08-15T22:38:14.981Z,5.60
2023-08-15T22:40:47.423Z,3.60
2023-08-15T22:43:19.543Z,6.50
2023-08-15T22:45:51.886Z,3.70
2023-08-15T22:48:24.283Z,5.20
2023-08-15T22:50:56.630Z,3.40
2023-08-15T22:53:28.727Z,4.50
2023-08-15T22:56:04.235Z,4.50
2023-08-15T22:58:36.476Z,6.80
2023-08-15T23:01:09.305Z,6.20
2023-08-15T23:03:41.609Z,4.40
2023-08-15T23:06:13.944Z,7.50
2023-08-15T23:08:46.053Z,3.50
2023-08-15T23:11:19.532Z,3.80
2023-08-15T23:13:51.736Z,7.00
2023-08-15T23:16:23.746Z,5.80
2023-08-15T23:18:55.987Z,5.80
2023-08-15T23:21:28.259Z,5.20
2023-08-15T23:24:00.171Z,4.10
2023-08-15T23:26:32.621Z,5.30
2023-08-15T23:29:04.735Z,4.70
2023-08-15T23:31:37.382Z,5.90
2023-08-15T23:34:10.250Z,4.10
2023-08-15T23:36:42.546Z,5.00
2023-08-15T23:39:17.053Z,4.90
2023-08-15T23:41:49.054Z,4.00
2023-08-15T23:44:21.124Z,5.20
2023-08-15T23:46:53.783Z,8.80
2023-08-15T23:49:26.248Z,9.50
2023-08-15T23:51:59.324Z,3.90
2023-08-15T23:54:31.847Z,6.40
2023-08-15T23:57:04.695Z,4.90
2023-08-15T23:59:36.717Z,4.60
